createdAt,value
2023-05-19T00:00:54.812Z,14.77
2023-05-19T00:03:21.926Z,14.77
2023-05-19T00:05:49.019Z,14.74
2023-05-19T00:08:17.059Z,14.70
2023-05-19T00:10:43.904Z,14.78
2023-05-19T00:13:10.548Z,14.79
2023-05-19T00:15:37.334Z,14.76
2023-05-19T00:18:03.790Z,14.68
2023-05-19T00:20:30.494Z,14.71
2023-05-19T00:22:57.096Z,14.70
2023-05-19T00:25:23.589Z,14.71
2023-05-19T00:27:50.011Z,14.72
2023-05-19T00:30:16.536Z,14.68
2023-05-19T00:32:42.952Z,14.71
2023-05-19T00:35:09.703Z,14.66
2023-05-19T00:37:36.069Z,14.68
2023-05-19T00:40:02.567Z,14.59
2023-05-19T00:42:28.995Z,14.45
2023-05-19T00:44:55.713Z,14.51
2023-05-19T00:47:22.368Z,14.41
2023-05-19T00:49:48.814Z,14.52
2023-05-19T00:52:15.486Z,14.55
2023-05-19T00:54:43.126Z,14.41
2023-05-19T00:57:09.609Z,14.48
2023-05-19T00:59:36.192Z,14.42
2023-05-19T01:02:02.835Z,14.32
2023-05-19T01:04:29.758Z,14.42
2023-05-19T01:06:56.520Z,14.52
2023-05-19T01:09:23.671Z,14.53
2023-05-19T01:11:50.534Z,14.47
2023-05-19T01:14:19.021Z,14.52
2023-05-19T01:17:05.217Z,14.53
2023-05-19T01:20:02.144Z,14.47
2023-05-19T01:22:36.958Z,14.46
2023-05-19T01:25:22.538Z,14.45
2023-05-19T01:28:23.426Z,14.34
2023-05-19T01:30:54.657Z,14.34
2023-05-19T01:33:22.942Z,14.37
2023-05-19T01:35:50.608Z,14.37
2023-05-19T01:38:19.264Z,14.35
2023-05-19T01:40:47.174Z,14.30
2023-05-19T01:43:18.640Z,14.41
2023-05-19T01:45:46.134Z,14.40
2023-05-19T01:48:13.672Z,14.40
2023-05-19T01:50:41.118Z,14.43
2023-05-19T01:53:07.909Z,14.27
2023-05-19T01:55:36.662Z,14.32
2023-05-19T01:58:26.609Z,14.33
2023-05-19T02:01:00.084Z,14.31
2023-05-19T02:03:51.371Z,14.34
2023-05-19T02:06:47.221Z,14.33
2023-05-19T02:09:25.457Z,14.28
2023-05-19T02:12:04.795Z,14.24
2023-05-19T02:14:49.495Z,14.33
2023-05-19T02:17:17.833Z,14.26
2023-05-19T02:19:44.799Z,14.11
2023-05-19T02:22:11.178Z,14.11
2023-05-19T02:24:37.717Z,14.14
2023-05-19T02:27:04.339Z,14.20
2023-05-19T02:29:30.764Z,14.28
2023-05-19T02:31:57.185Z,14.22
2023-05-19T02:34:23.617Z,14.17
2023-05-19T02:36:50.568Z,14.19
2023-05-19T02:39:17.015Z,14.07
2023-05-19T02:41:43.438Z,14.00
2023-05-19T02:44:09.976Z,13.98
2023-05-19T02:46:36.482Z,13.90
2023-05-19T02:49:02.899Z,13.98
2023-05-19T02:51:29.286Z,13.96
2023-05-19T02:53:55.782Z,13.63
2023-05-19T02:56:22.555Z,13.79
2023-05-19T02:58:48.947Z,13.72
2023-05-19T03:01:15.719Z,13.80
2023-05-19T03:03:42.261Z,13.84
2023-05-19T03:06:09.236Z,13.72
2023-05-19T03:08:36.090Z,13.65
2023-05-19T03:11:03.393Z,13.52
2023-05-19T03:13:30.039Z,13.53
2023-05-19T03:15:58.649Z,13.62
2023-05-19T03:18:26.804Z,13.70
2023-05-19T03:20:53.960Z,13.74
2023-05-19T03:23:21.563Z,13.49
2023-05-19T03:25:48.191Z,13.58
2023-05-19T03:28:14.556Z,13.48
2023-05-19T03:30:40.953Z,13.37
2023-05-19T03:33:07.534Z,13.48
2023-05-19T03:35:34.105Z,13.62
2023-05-19T03:38:00.514Z,13.59
2023-05-19T03:40:27.105Z,13.62
2023-05-19T03:42:54.371Z,13.63
2023-05-19T03:45:21.042Z,13.69
2023-05-19T03:47:47.659Z,13.63
2023-05-19T03:50:14.117Z,13.59
2023-05-19T03:52:40.487Z,13.50
2023-05-19T03:55:07.751Z,13.51
2023-05-19T03:57:37.265Z,13.45
2023-05-19T04:00:05.852Z,13.56
2023-05-19T04:02:32.314Z,13.48
2023-05-19T04:04:58.905Z,13.50
2023-05-19T04:07:25.694Z,13.55
2023-05-19T04:09:52.091Z,13.65
2023-05-19T04:12:18.468Z,13.68
2023-05-19T04:14:44.911Z,13.69
2023-05-19T04:17:11.700Z,13.50
2023-05-19T04:19:38.131Z,13.28
2023-05-19T04:22:04.771Z,13.44
2023-05-19T04:24:31.353Z,13.34
2023-05-19T04:27:02.324Z,13.42
2023-05-19T04:29:29.486Z,13.29
2023-05-19T04:31:57.109Z,13.32
2023-05-19T04:34:23.556Z,13.38
2023-05-19T04:36:52.404Z,13.34
2023-05-19T04:39:19.908Z,13.41
2023-05-19T04:41:46.332Z,13.25
2023-05-19T04:44:13.657Z,13.25
2023-05-19T04:46:40.254Z,13.00
2023-05-19T04:49:07.702Z,13.10
2023-05-19T04:51:35.701Z,13.12
2023-05-19T04:54:02.201Z,12.97
2023-05-19T04:56:28.825Z,13.12
2023-05-19T04:58:55.317Z,13.10
2023-05-19T05:01:25.873Z,13.08
2023-05-19T05:03:55.744Z,13.00
2023-05-19T05:06:22.361Z,13.09
2023-05-19T05:08:49.356Z,13.21
2023-05-19T05:11:16.661Z,13.27
2023-05-19T05:13:43.412Z,13.27
2023-05-19T05:16:10.682Z,13.31
2023-05-19T05:18:38.666Z,13.28
2023-05-19T05:21:06.783Z,13.04
2023-05-19T05:23:33.459Z,13.23
2023-05-19T05:26:03.111Z,13.21
2023-05-19T05:28:29.706Z,13.01
2023-05-19T05:30:57.288Z,13.10
2023-05-19T05:33:24.730Z,13.14
2023-05-19T05:35:51.355Z,13.19
2023-05-19T05:38:17.774Z,13.27
2023-05-19T05:40:44.148Z,13.46
2023-05-19T05:43:10.522Z,13.50
2023-05-19T05:45:36.965Z,13.64
2023-05-19T05:48:03.831Z,13.77
2023-05-19T05:50:30.620Z,13.73
2023-05-19T05:52:57.838Z,13.82
2023-05-19T05:55:24.590Z,13.87
2023-05-19T05:57:51.683Z,13.82
2023-05-19T06:00:18.777Z,13.82
2023-05-19T06:02:49.460Z,13.81
2023-05-19T06:05:16.526Z,13.66
2023-05-19T06:07:43.725Z,13.71
2023-05-19T06:10:10.348Z,13.65
2023-05-19T06:12:40.450Z,13.76
2023-05-19T06:15:08.004Z,13.92
2023-05-19T06:17:36.061Z,13.82
2023-05-19T06:20:04.876Z,13.82
2023-05-19T06:22:31.292Z,13.80
2023-05-19T06:24:57.739Z,13.86
2023-05-19T06:27:24.373Z,13.84
2023-05-19T06:29:50.957Z,13.71
2023-05-19T06:32:17.389Z,13.82
2023-05-19T06:34:44.029Z,13.79
2023-05-19T06:37:10.730Z,13.77
2023-05-19T06:39:38.166Z,13.78
2023-05-19T06:42:05.106Z,13.59
2023-05-19T06:44:31.485Z,13.78
2023-05-19T06:46:57.934Z,13.69
2023-05-19T06:49:24.469Z,13.82
2023-05-19T06:51:50.988Z,13.83
2023-05-19T06:54:17.543Z,13.88
2023-05-19T06:56:43.976Z,13.87
2023-05-19T06:59:10.766Z,13.64
2023-05-19T07:01:37.788Z,13.76
2023-05-19T07:04:04.435Z,13.86
2023-05-19T07:06:31.241Z,13.84
2023-05-19T07:08:57.668Z,13.89
2023-05-19T07:11:24.546Z,13.90
2023-05-19T07:13:50.967Z,13.93
2023-05-19T07:16:17.406Z,13.95
2023-05-19T07:18:43.996Z,13.87
2023-05-19T07:21:10.785Z,13.92
2023-05-19T07:23:37.156Z,13.83
2023-05-19T07:26:03.810Z,13.93
2023-05-19T07:28:30.180Z,13.98
2023-05-19T07:30:56.543Z,14.04
2023-05-19T07:33:23.033Z,14.07
2023-05-19T07:35:49.427Z,14.14
2023-05-19T07:38:15.826Z,14.15
2023-05-19T07:40:42.223Z,14.06
2023-05-19T07:43:08.716Z,13.92
2023-05-19T07:45:35.204Z,14.07
2023-05-19T07:48:01.767Z,14.11
2023-05-19T07:50:28.242Z,14.10
2023-05-19T07:52:54.708Z,14.20
2023-05-19T07:55:23.073Z,14.27
2023-05-19T07:57:50.805Z,14.22
2023-05-19T08:00:17.892Z,14.27
2023-05-19T08:02:44.813Z,14.29
2023-05-19T08:05:11.533Z,14.17
2023-05-19T08:07:37.973Z,14.04
2023-05-19T08:10:04.761Z,14.20
2023-05-19T08:12:31.301Z,14.28
2023-05-19T08:15:00.422Z,14.36
2023-05-19T08:17:27.674Z,14.41
2023-05-19T08:19:54.102Z,14.46
2023-05-19T08:22:20.661Z,14.31
2023-05-19T08:24:49.567Z,14.37
2023-05-19T08:27:17.072Z,14.22
2023-05-19T08:29:43.507Z,14.15
2023-05-19T08:32:12.949Z,14.21
2023-05-19T08:34:39.676Z,14.33
2023-05-19T08:37:06.876Z,14.46
2023-05-19T08:39:34.758Z,14.33
2023-05-19T08:42:01.539Z,14.28
2023-05-19T08:44:28.365Z,14.35
2023-05-19T08:46:56.234Z,14.30
2023-05-19T08:49:26.531Z,14.47
2023-05-19T08:52:06.271Z,14.57
2023-05-19T08:54:54.470Z,14.50
2023-05-19T08:57:24.773Z,14.28
2023-05-19T08:59:52.203Z,14.24
2023-05-19T09:02:19.655Z,14.27
2023-05-19T09:04:47.926Z,14.27
2023-05-19T09:07:15.273Z,14.50
2023-05-19T09:09:43.682Z,14.24
2023-05-19T09:12:13.792Z,14.21
2023-05-19T09:14:40.533Z,14.37
2023-05-19T09:17:07.192Z,14.33
2023-05-19T09:19:33.817Z,14.36
2023-05-19T09:22:01.375Z,14.40
2023-05-19T09:24:28.253Z,14.50
2023-05-19T09:27:00.087Z,14.71
2023-05-19T09:29:27.146Z,14.84
2023-05-19T09:31:55.898Z,14.86
2023-05-19T09:34:24.642Z,14.72
2023-05-19T09:36:53.172Z,14.75
2023-05-19T09:39:21.850Z,14.75
2023-05-19T09:41:54.976Z,14.59
2023-05-19T09:44:29.239Z,14.71
2023-05-19T09:46:56.200Z,14.80
2023-05-19T09:49:24.501Z,14.90
2023-05-19T09:51:58.692Z,14.96
2023-05-19T09:54:28.300Z,14.96
2023-05-19T09:57:03.435Z,14.97
2023-05-19T09:59:33.341Z,15.10
2023-05-19T10:02:01.648Z,14.99
2023-05-19T10:04:29.468Z,15.03
2023-05-19T10:06:59.329Z,15.08
2023-05-19T10:09:27.319Z,15.10
2023-05-19T10:11:55.250Z,15.22
2023-05-19T10:14:26.672Z,15.37
2023-05-19T10:16:55.446Z,15.49
2023-05-19T10:19:23.736Z,15.40
2023-05-19T10:21:51.004Z,15.41
2023-05-19T10:24:18.086Z,15.33
2023-05-19T10:26:48.161Z,15.47
2023-05-19T10:29:19.902Z,15.52
2023-05-19T10:31:47.670Z,15.50
2023-05-19T10:34:32.500Z,15.46
2023-05-19T10:37:22.162Z,15.55
2023-05-19T10:39:51.219Z,15.58
2023-05-19T10:42:34.749Z,15.49
2023-05-19T10:45:16.181Z,15.59
2023-05-19T10:47:43.515Z,15.65
2023-05-19T10:50:11.100Z,15.66
2023-05-19T10:52:38.532Z,15.68
2023-05-19T10:55:08.604Z,15.52
2023-05-19T10:57:35.457Z,15.74
2023-05-19T11:00:28.193Z,15.91
2023-05-19T11:02:57.805Z,16.00
2023-05-19T11:05:29.427Z,16.20
2023-05-19T11:08:10.669Z,16.35
2023-05-19T11:10:37.072Z,16.43
2023-05-19T11:13:06.613Z,16.47
2023-05-19T11:15:39.099Z,16.38
2023-05-19T11:18:05.667Z,16.55
2023-05-19T11:20:34.668Z,16.72
2023-05-19T11:23:09.290Z,16.73
2023-05-19T11:25:46.921Z,16.66
2023-05-19T11:28:19.925Z,16.82
2023-05-19T11:30:50.773Z,16.84
2023-05-19T11:33:20.861Z,17.01
2023-05-19T11:35:50.273Z,16.87
2023-05-19T11:38:20.465Z,16.93
2023-05-19T11:40:49.638Z,17.09
2023-05-19T11:43:18.624Z,17.15
2023-05-19T11:45:45.610Z,17.28
2023-05-19T11:48:12.815Z,17.36
2023-05-19T11:50:43.792Z,17.47
2023-05-19T11:53:13.967Z,17.56
2023-05-19T11:55:46.674Z,17.56
2023-05-19T11:58:13.835Z,17.57
2023-05-19T12:00:42.705Z,17.67
2023-05-19T12:03:09.923Z,17.60
2023-05-19T12:05:41.802Z,17.69
2023-05-19T12:08:09.792Z,17.72
2023-05-19T12:10:36.817Z,17.72
2023-05-19T12:13:03.589Z,17.74
2023-05-19T12:15:31.849Z,17.59
2023-05-19T12:18:01.760Z,17.32
2023-05-19T12:20:31.947Z,17.56
2023-05-19T12:23:00.049Z,17.52
2023-05-19T12:25:26.525Z,17.54
2023-05-19T12:27:58.138Z,17.67
2023-05-19T12:30:26.694Z,17.80
2023-05-19T12:32:54.152Z,17.89
2023-05-19T12:35:20.764Z,17.79
2023-05-19T12:37:49.063Z,17.79
2023-05-19T12:40:16.787Z,17.88
2023-05-19T12:42:46.672Z,17.82
2023-05-19T12:45:13.030Z,17.75
2023-05-19T12:47:39.490Z,17.82
2023-05-19T12:50:10.766Z,17.89
2023-05-19T12:52:45.700Z,17.89
2023-05-19T12:55:12.435Z,17.84
2023-05-19T12:57:41.017Z,17.87
2023-05-19T13:00:17.440Z,18.06
2023-05-19T13:03:05.020Z,18.16
2023-05-19T13:05:39.680Z,18.26
2023-05-19T13:08:10.024Z,18.15
2023-05-19T13:10:38.220Z,18.02
2023-05-19T13:13:05.744Z,17.99
2023-05-19T13:15:35.624Z,17.87
2023-05-19T13:18:04.084Z,17.62
2023-05-19T13:20:30.738Z,17.62
2023-05-19T13:22:57.471Z,17.56
2023-05-19T13:25:24.209Z,17.59
2023-05-19T13:27:50.973Z,17.58
2023-05-19T13:30:18.586Z,17.55
2023-05-19T13:32:45.963Z,17.65
2023-05-19T13:35:13.959Z,17.78
2023-05-19T13:37:42.152Z,17.81
2023-05-19T13:40:09.755Z,17.82
2023-05-19T13:42:36.337Z,17.69
2023-05-19T13:45:03.584Z,17.62
2023-05-19T13:47:30.292Z,17.63
2023-05-19T13:49:57.433Z,17.79
2023-05-19T13:52:23.872Z,17.75
2023-05-19T13:54:50.381Z,17.83
2023-05-19T13:57:16.980Z,17.87
2023-05-19T13:59:57.605Z,17.88
2023-05-19T14:02:27.890Z,17.81
2023-05-19T14:04:54.373Z,17.74
2023-05-19T14:07:21.145Z,17.77
2023-05-19T14:09:47.538Z,17.78
2023-05-19T14:12:13.938Z,17.79
2023-05-19T14:14:40.416Z,17.67
2023-05-19T14:17:06.827Z,17.72
2023-05-19T14:19:33.262Z,17.80
2023-05-19T14:22:00.125Z,17.79
2023-05-19T14:24:26.533Z,17.74
2023-05-19T14:26:53.691Z,17.71
2023-05-19T14:29:20.096Z,17.86
2023-05-19T14:31:46.539Z,17.95
2023-05-19T14:34:13.029Z,17.77
2023-05-19T14:36:39.416Z,17.76
2023-05-19T14:39:05.867Z,17.73
2023-05-19T14:41:32.268Z,17.75
2023-05-19T14:43:58.652Z,17.68
2023-05-19T14:46:25.182Z,17.60
2023-05-19T14:48:51.554Z,17.67
2023-05-19T14:51:17.922Z,17.60
2023-05-19T14:53:44.292Z,17.55
2023-05-19T14:56:10.701Z,17.65
2023-05-19T14:58:37.153Z,17.49
2023-05-19T15:01:03.866Z,17.50
2023-05-19T15:03:30.443Z,17.25
2023-05-19T15:05:56.861Z,17.33
2023-05-19T15:08:23.514Z,17.39
2023-05-19T15:10:50.547Z,17.27
2023-05-19T15:13:18.720Z,17.31
2023-05-19T15:15:45.868Z,17.11
2023-05-19T15:18:13.068Z,17.37
2023-05-19T15:20:39.506Z,17.52
2023-05-19T15:23:05.998Z,17.30
2023-05-19T15:25:32.377Z,17.30
2023-05-19T15:27:58.761Z,17.43
2023-05-19T15:30:25.204Z,17.40
2023-05-19T15:32:51.682Z,17.22
2023-05-19T15:35:18.102Z,17.01
2023-05-19T15:37:44.488Z,17.04
2023-05-19T15:40:11.476Z,17.19
2023-05-19T15:42:37.862Z,17.40
2023-05-19T15:45:05.690Z,17.46
2023-05-19T15:47:32.089Z,17.53
2023-05-19T15:49:58.615Z,17.54
2023-05-19T15:52:25.363Z,17.47
2023-05-19T15:54:51.930Z,17.31
2023-05-19T15:57:18.319Z,17.24
2023-05-19T15:59:44.771Z,17.24
2023-05-19T16:02:11.413Z,17.15
2023-05-19T16:04:37.925Z,17.04
2023-05-19T16:07:04.429Z,17.06
2023-05-19T16:09:30.839Z,17.16
2023-05-19T16:11:57.392Z,17.11
2023-05-19T16:14:24.396Z,17.02
2023-05-19T16:16:51.062Z,16.89
2023-05-19T16:19:17.804Z,16.93
2023-05-19T16:21:44.200Z,17.04
2023-05-19T16:24:10.764Z,17.14
2023-05-19T16:26:37.144Z,17.03
2023-05-19T16:29:03.591Z,16.85
2023-05-19T16:31:30.249Z,16.94
2023-05-19T16:33:56.758Z,17.10
2023-05-19T16:36:23.146Z,16.92
2023-05-19T16:38:49.563Z,16.97
2023-05-19T16:41:15.991Z,16.95
2023-05-19T16:43:42.425Z,16.89
2023-05-19T16:46:10.023Z,16.97
2023-05-19T16:48:36.537Z,16.84
2023-05-19T16:51:03.030Z,16.80
2023-05-19T16:53:29.442Z,16.75
2023-05-19T16:55:55.803Z,16.93
2023-05-19T16:58:22.237Z,16.99
2023-05-19T17:00:51.915Z,16.94
2023-05-19T17:03:18.889Z,16.91
2023-05-19T17:05:45.674Z,16.87
2023-05-19T17:08:12.661Z,16.99
2023-05-19T17:10:39.259Z,17.13
2023-05-19T17:13:05.790Z,17.12
2023-05-19T17:15:33.850Z,17.07
2023-05-19T17:18:00.321Z,17.06
2023-05-19T17:20:26.824Z,16.87
2023-05-19T17:22:53.209Z,16.97
2023-05-19T17:25:19.604Z,16.89
2023-05-19T17:27:46.210Z,16.95
2023-05-19T17:30:13.190Z,16.87
2023-05-19T17:32:39.859Z,16.81
2023-05-19T17:35:07.062Z,16.75
2023-05-19T17:37:33.496Z,16.80
2023-05-19T17:39:59.932Z,16.65
2023-05-19T17:42:26.471Z,16.47
2023-05-19T17:44:52.837Z,16.61
2023-05-19T17:47:19.240Z,16.62
2023-05-19T17:49:46.141Z,16.67
2023-05-19T17:52:12.810Z,16.41
2023-05-19T17:54:39.405Z,16.50
2023-05-19T17:57:10.751Z,16.48
2023-05-19T17:59:37.371Z,16.64
2023-05-19T18:02:04.332Z,16.54
2023-05-19T18:04:31.257Z,16.54
2023-05-19T18:06:59.188Z,16.64
2023-05-19T18:09:28.732Z,16.65
2023-05-19T18:11:55.529Z,16.72
2023-05-19T18:14:21.968Z,16.81
2023-05-19T18:16:49.954Z,16.72
2023-05-19T18:19:16.700Z,16.65
2023-05-19T18:21:43.098Z,16.64
2023-05-19T18:24:11.244Z,16.25
2023-05-19T18:26:41.588Z,16.31
2023-05-19T18:29:11.454Z,16.46
2023-05-19T18:31:38.196Z,16.43
2023-05-19T18:34:04.716Z,16.40
2023-05-19T18:36:31.470Z,16.59
2023-05-19T18:38:59.201Z,16.50
2023-05-19T18:41:25.797Z,16.28
2023-05-19T18:43:52.166Z,16.31
2023-05-19T18:46:18.702Z,16.21
2023-05-19T18:48:45.297Z,16.31
2023-05-19T18:51:14.100Z,16.33
2023-05-19T18:53:40.476Z,16.39
2023-05-19T18:56:07.276Z,16.45
2023-05-19T18:58:33.641Z,16.43
2023-05-19T19:01:00.038Z,16.41
2023-05-19T19:03:26.607Z,16.32
2023-05-19T19:05:56.758Z,16.19
2023-05-19T19:08:23.195Z,16.15
2023-05-19T19:10:51.367Z,16.21
2023-05-19T19:13:18.274Z,16.14
2023-05-19T19:15:45.105Z,16.13
2023-05-19T19:18:11.868Z,16.23
2023-05-19T19:20:38.325Z,16.38
2023-05-19T19:23:06.474Z,16.45
2023-05-19T19:25:33.412Z,16.49
2023-05-19T19:27:59.770Z,16.50
2023-05-19T19:30:26.832Z,16.37
2023-05-19T19:32:54.777Z,16.14
2023-05-19T19:35:21.365Z,15.96
2023-05-19T19:37:47.831Z,16.10
2023-05-19T19:40:14.302Z,16.13
2023-05-19T19:42:40.872Z,16.15
2023-05-19T19:45:07.764Z,16.31
2023-05-19T19:47:34.232Z,16.28
2023-05-19T19:50:02.567Z,16.41
2023-05-19T19:52:28.979Z,16.34
2023-05-19T19:54:55.581Z,16.24
2023-05-19T19:57:22.002Z,16.27
2023-05-19T19:59:54.944Z,16.21
2023-05-19T20:02:21.627Z,16.30
2023-05-19T20:04:48.245Z,16.34
2023-05-19T20:07:14.642Z,16.38
2023-05-19T20:09:41.030Z,16.35
2023-05-19T20:12:07.601Z,16.33
2023-05-19T20:14:34.039Z,16.42
2023-05-19T20:17:00.423Z,16.38
2023-05-19T20:19:26.923Z,16.30
2023-05-19T20:21:53.337Z,16.24
2023-05-19T20:24:19.906Z,16.27
2023-05-19T20:26:46.427Z,16.24
2023-05-19T20:29:12.801Z,16.24
2023-05-19T20:31:39.183Z,16.26
2023-05-19T20:34:05.702Z,16.33
2023-05-19T20:36:32.161Z,16.11
2023-05-19T20:38:58.639Z,16.21
2023-05-19T20:41:25.042Z,16.22
2023-05-19T20:43:51.449Z,16.11
2023-05-19T20:46:17.959Z,16.03
2023-05-19T20:48:44.466Z,15.96
2023-05-19T20:51:10.856Z,15.99
2023-05-19T20:53:37.460Z,16.05
2023-05-19T20:56:05.498Z,15.98
2023-05-19T20:58:32.128Z,16.03
2023-05-19T21:00:58.632Z,15.85
2023-05-19T21:03:26.727Z,15.85
2023-05-19T21:05:53.358Z,15.79
2023-05-19T21:08:19.784Z,15.58
2023-05-19T21:10:46.252Z,15.46
2023-05-19T21:13:12.645Z,15.41
2023-05-19T21:15:39.410Z,15.47
2023-05-19T21:18:06.590Z,15.65
2023-05-19T21:20:33.197Z,15.61
2023-05-19T21:22:59.679Z,15.72
2023-05-19T21:25:26.051Z,15.73
2023-05-19T21:27:52.761Z,15.70
2023-05-19T21:30:19.152Z,15.80
2023-05-19T21:32:45.769Z,15.73
2023-05-19T21:35:12.166Z,15.75
2023-05-19T21:37:38.556Z,15.71
2023-05-19T21:40:05.763Z,15.68
2023-05-19T21:42:32.164Z,15.86
2023-05-19T21:44:58.579Z,15.92
2023-05-19T21:47:25.138Z,15.95
2023-05-19T21:49:51.529Z,15.89
2023-05-19T21:52:18.902Z,15.96
2023-05-19T21:54:45.643Z,16.02
2023-05-19T21:57:12.616Z,15.91
2023-05-19T21:59:39.164Z,15.92
2023-05-19T22:02:06.160Z,15.77
2023-05-19T22:04:32.760Z,15.80
2023-05-19T22:06:59.185Z,15.62
2023-05-19T22:09:26.089Z,15.61
2023-05-19T22:11:52.484Z,15.74
2023-05-19T22:14:18.898Z,15.81
2023-05-19T22:16:47.285Z,15.78
2023-05-19T22:19:14.489Z,15.57
2023-05-19T22:21:41.042Z,15.68
2023-05-19T22:24:07.457Z,15.82
2023-05-19T22:26:35.644Z,15.87
2023-05-19T22:29:02.522Z,15.84
2023-05-19T22:31:29.562Z,15.87
2023-05-19T22:33:56.057Z,15.84
2023-05-19T22:36:23.462Z,15.68
2023-05-19T22:38:49.895Z,15.79
2023-05-19T22:41:16.347Z,15.80
2023-05-19T22:43:43.390Z,15.68
2023-05-19T22:46:10.159Z,15.66
2023-05-19T22:48:36.668Z,15.68
2023-05-19T22:51:03.151Z,15.77
2023-05-19T22:53:29.571Z,15.76
2023-05-19T22:55:56.040Z,15.68
2023-05-19T22:58:22.536Z,15.63
2023-05-19T23:00:49.024Z,15.56
2023-05-19T23:03:15.547Z,15.60
2023-05-19T23:05:42.764Z,15.61
2023-05-19T23:08:09.234Z,15.59
2023-05-19T23:10:35.764Z,15.55
2023-05-19T23:13:02.246Z,15.52
2023-05-19T23:15:28.731Z,15.34
2023-05-19T23:17:55.363Z,15.42
2023-05-19T23:20:21.880Z,15.40
2023-05-19T23:22:48.277Z,15.52
2023-05-19T23:25:14.686Z,15.44
2023-05-19T23:27:41.198Z,15.57
2023-05-19T23:30:08.255Z,15.55
2023-05-19T23:32:34.651Z,15.59
2023-05-19T23:35:15.526Z,15.63
2023-05-19T23:37:42.265Z,15.49
2023-05-19T23:40:09.232Z,15.51
2023-05-19T23:42:36.324Z,15.58
2023-05-19T23:45:03.521Z,15.44
2023-05-19T23:47:30.030Z,15.48
2023-05-19T23:49:56.699Z,15.61
2023-05-19T23:52:23.136Z,15.59
2023-05-19T23:54:49.939Z,15.65
2023-05-19T23:57:16.600Z,15.63
2023-05-19T23:59:43.129Z,15.61
